createdAt,value
2022-10-10T00:01:16.163Z,99.90
2022-10-10T00:03:43.594Z,99.90
2022-10-10T00:06:11.607Z,99.90
2022-10-10T00:08:38.666Z,99.90
2022-10-10T00:11:06.263Z,99.90
2022-10-10T00:13:33.600Z,99.90
2022-10-10T00:16:00.682Z,99.90
2022-10-10T00:18:27.627Z,99.90
2022-10-10T00:20:54.488Z,99.90
2022-10-10T00:23:21.451Z,99.90
2022-10-10T00:25:50.094Z,99.90
2022-10-10T00:28:17.374Z,99.90
2022-10-10T00:30:44.950Z,99.90
2022-10-10T00:33:12.181Z,99.90
2022-10-10T00:35:39.794Z,99.90
2022-10-10T00:38:06.772Z,99.90
2022-10-10T00:40:34.077Z,99.90
2022-10-10T00:43:01.143Z,99.90
2022-10-10T00:45:30.937Z,99.90
2022-10-10T00:48:04.411Z,99.90
2022-10-10T00:50:34.780Z,99.90
2022-10-10T00:53:03.348Z,99.90
2022-10-10T00:55:30.274Z,99.90
2022-10-10T00:57:57.305Z,99.90
2022-10-10T01:00:24.072Z,99.90
2022-10-10T01:02:51.277Z,99.90
2022-10-10T01:05:18.399Z,99.90
2022-10-10T01:07:45.705Z,99.90
2022-10-10T01:10:19.450Z,99.90
2022-10-10T01:13:02.937Z,99.90
2022-10-10T01:15:46.807Z,99.90
2022-10-10T01:18:37.282Z,99.90
2022-10-10T01:21:10.602Z,99.90
2022-10-10T01:23:55.573Z,99.90
2022-10-10T01:26:55.322Z,99.90
2022-10-10T01:29:45.318Z,99.90
2022-10-10T01:32:39.826Z,99.90
2022-10-10T01:35:32.842Z,99.90
2022-10-10T01:38:25.940Z,99.90
2022-10-10T01:41:04.808Z,99.90
2022-10-10T01:43:32.038Z,99.90
2022-10-10T01:45:58.877Z,99.90
2022-10-10T01:48:30.968Z,99.90
2022-10-10T01:51:03.568Z,99.90
2022-10-10T01:53:54.566Z,99.90
2022-10-10T01:56:40.052Z,99.90
2022-10-10T01:59:25.259Z,99.90
2022-10-10T02:02:18.534Z,99.90
2022-10-10T02:04:56.784Z,99.90
2022-10-10T02:08:00.690Z,99.90
2022-10-10T02:10:32.023Z,99.90
2022-10-10T02:13:01.451Z,99.90
2022-10-10T02:15:34.840Z,99.90
2022-10-10T02:18:05.292Z,99.90
2022-10-10T02:20:33.124Z,99.90
2022-10-10T02:22:59.919Z,99.90
2022-10-10T02:25:36.352Z,99.90
2022-10-10T02:28:17.588Z,99.90
2022-10-10T02:30:47.004Z,99.90
2022-10-10T02:33:18.987Z,99.90
2022-10-10T02:35:49.375Z,99.90
2022-10-10T02:38:17.329Z,99.90
2022-10-10T02:40:47.159Z,99.90
2022-10-10T02:43:15.705Z,99.90
2022-10-10T02:45:42.932Z,99.90
2022-10-10T02:48:09.756Z,99.90
2022-10-10T02:50:36.639Z,99.90
2022-10-10T02:53:03.506Z,99.90
2022-10-10T02:55:30.215Z,99.90
2022-10-10T02:57:56.989Z,99.90
2022-10-10T03:00:23.689Z,99.90
2022-10-10T03:02:50.714Z,99.90
2022-10-10T03:05:17.709Z,99.90
2022-10-10T03:07:44.391Z,99.90
2022-10-10T03:10:11.132Z,99.90
2022-10-10T03:12:37.875Z,99.90
2022-10-10T03:15:10.541Z,99.90
2022-10-10T03:17:38.260Z,99.90
2022-10-10T03:20:05.925Z,99.90
2022-10-10T03:22:32.834Z,99.90
2022-10-10T03:24:59.541Z,99.90
2022-10-10T03:27:26.258Z,99.90
2022-10-10T03:29:52.935Z,99.90
2022-10-10T03:32:19.666Z,99.90
2022-10-10T03:34:46.398Z,99.90
2022-10-10T03:37:13.286Z,99.90
2022-10-10T03:39:39.974Z,99.90
2022-10-10T03:42:06.727Z,99.90
2022-10-10T03:44:33.491Z,99.90
2022-10-10T03:47:00.271Z,99.90
2022-10-10T03:49:26.979Z,99.90
2022-10-10T03:51:53.799Z,99.90
2022-10-10T03:54:20.938Z,99.90
2022-10-10T03:56:47.712Z,99.90
2022-10-10T03:59:14.553Z,99.90
2022-10-10T04:01:41.424Z,99.90
2022-10-10T04:04:08.328Z,99.90
2022-10-10T04:06:35.344Z,99.90
2022-10-10T04:09:02.050Z,99.90
2022-10-10T04:11:28.738Z,99.90
2022-10-10T04:13:55.436Z,99.90
2022-10-10T04:16:22.205Z,99.90
2022-10-10T04:18:49.140Z,99.90
2022-10-10T04:21:15.848Z,99.90
2022-10-10T04:23:42.615Z,99.90
2022-10-10T04:26:09.400Z,99.90
2022-10-10T04:28:36.310Z,99.90
2022-10-10T04:31:03.269Z,99.90
2022-10-10T04:33:30.088Z,99.90
2022-10-10T04:35:56.781Z,99.90
2022-10-10T04:38:23.699Z,99.90
2022-10-10T04:40:50.873Z,99.90
2022-10-10T04:43:18.385Z,99.90
2022-10-10T04:45:45.245Z,99.90
2022-10-10T04:48:12.073Z,99.90
2022-10-10T04:50:39.085Z,99.90
2022-10-10T04:53:06.168Z,99.90
2022-10-10T04:55:33.016Z,99.90
2022-10-10T04:57:59.889Z,99.90
2022-10-10T05:00:27.058Z,99.90
2022-10-10T05:02:54.229Z,99.90
2022-10-10T05:05:21.092Z,99.90
2022-10-10T05:07:50.723Z,99.90
2022-10-10T05:10:21.315Z,99.90
2022-10-10T05:12:48.892Z,99.90
2022-10-10T05:15:15.951Z,99.90
2022-10-10T05:17:42.885Z,99.90
2022-10-10T05:20:10.242Z,99.90
2022-10-10T05:22:37.211Z,99.90
2022-10-10T05:25:04.214Z,99.90
2022-10-10T05:27:30.953Z,99.90
2022-10-10T05:29:57.704Z,99.90
2022-10-10T05:32:24.473Z,99.90
2022-10-10T05:34:51.163Z,99.90
2022-10-10T05:37:18.013Z,99.90
2022-10-10T05:39:44.717Z,99.90
2022-10-10T05:42:13.938Z,99.90
2022-10-10T05:44:40.927Z,99.90
2022-10-10T05:47:07.729Z,99.90
2022-10-10T05:49:34.478Z,99.90
2022-10-10T05:52:01.295Z,99.90
2022-10-10T05:54:28.011Z,99.90
2022-10-10T05:56:54.763Z,99.90
2022-10-10T05:59:21.500Z,99.90
2022-10-10T06:01:48.195Z,99.90
2022-10-10T06:04:14.978Z,99.90
2022-10-10T06:06:41.808Z,99.90
2022-10-10T06:09:08.878Z,99.90
2022-10-10T06:11:35.654Z,99.90
2022-10-10T06:14:02.339Z,99.90
2022-10-10T06:16:29.262Z,99.90
2022-10-10T06:18:58.737Z,99.90
2022-10-10T06:21:25.853Z,99.90
2022-10-10T06:23:52.620Z,99.90
2022-10-10T06:26:19.403Z,99.90
2022-10-10T06:28:46.380Z,99.90
2022-10-10T06:31:14.496Z,99.90
2022-10-10T06:33:49.141Z,99.90
2022-10-10T06:36:16.794Z,99.90
2022-10-10T06:38:45.408Z,99.90
2022-10-10T06:41:12.462Z,99.90
2022-10-10T06:43:39.152Z,99.90
2022-10-10T06:46:06.106Z,99.90
2022-10-10T06:48:34.874Z,99.90
2022-10-10T06:51:02.780Z,99.90
2022-10-10T06:53:29.803Z,99.90
2022-10-10T06:55:57.257Z,99.90
2022-10-10T06:58:25.894Z,99.90
2022-10-10T07:00:58.571Z,99.90
2022-10-10T07:03:25.643Z,99.90
2022-10-10T07:05:53.971Z,99.90
2022-10-10T07:08:21.069Z,99.90
2022-10-10T07:10:47.898Z,99.90
2022-10-10T07:13:15.454Z,99.90
2022-10-10T07:15:42.672Z,99.90
2022-10-10T07:18:10.410Z,99.90
2022-10-10T07:20:37.699Z,99.90
2022-10-10T07:23:04.645Z,99.90
2022-10-10T07:25:31.888Z,82.10
2022-10-10T07:27:58.702Z,76.40
2022-10-10T07:30:25.961Z,58.70
2022-10-10T07:32:54.374Z,43.80
2022-10-10T07:35:21.856Z,32.70
2022-10-10T07:37:53.045Z,36.60
2022-10-10T07:40:20.109Z,35.50
2022-10-10T07:42:46.900Z,27.30
2022-10-10T07:45:13.760Z,25.80
2022-10-10T07:47:41.144Z,22.30
2022-10-10T07:50:08.766Z,13.60
2022-10-10T07:52:35.834Z,15.80
2022-10-10T07:55:03.783Z,3.50
2022-10-10T07:57:34.897Z,11.90
2022-10-10T08:00:06.210Z,5.40
2022-10-10T08:02:38.668Z,8.40
2022-10-10T08:05:05.900Z,10.90
2022-10-10T08:07:32.704Z,3.30
2022-10-10T08:09:59.691Z,4.30
2022-10-10T08:12:26.442Z,2.60
2022-10-10T08:14:53.214Z,1.40
2022-10-10T08:17:20.329Z,1.00
2022-10-10T08:19:47.169Z,1.00
2022-10-10T08:22:13.931Z,1.00
2022-10-10T08:24:40.630Z,1.00
2022-10-10T08:27:07.416Z,1.00
2022-10-10T08:29:34.237Z,1.00
2022-10-10T08:32:01.055Z,1.00
2022-10-10T08:34:27.873Z,1.00
2022-10-10T08:36:54.596Z,1.00
2022-10-10T08:39:21.429Z,1.00
2022-10-10T08:42:02.358Z,1.00
2022-10-10T08:44:42.776Z,1.00
2022-10-10T08:47:09.447Z,1.00
2022-10-10T08:49:44.429Z,1.00
2022-10-10T08:52:18.885Z,1.00
2022-10-10T08:54:48.728Z,1.00
2022-10-10T08:57:25.943Z,1.00
2022-10-10T08:59:56.404Z,1.00
2022-10-10T09:02:53.652Z,1.00
2022-10-10T09:06:03.058Z,1.00
2022-10-10T09:08:48.579Z,1.00
2022-10-10T09:11:31.153Z,1.00
2022-10-10T09:14:15.753Z,1.00
2022-10-10T09:17:02.833Z,1.00
2022-10-10T09:19:53.230Z,1.00
2022-10-10T09:22:25.525Z,1.00
2022-10-10T09:24:59.023Z,1.00
2022-10-10T09:27:31.149Z,1.00
2022-10-10T09:30:06.281Z,1.00
2022-10-10T09:32:50.853Z,1.00
2022-10-10T09:35:24.517Z,1.00
2022-10-10T09:37:57.725Z,1.00
2022-10-10T09:40:30.078Z,1.00
2022-10-10T09:42:57.114Z,1.00
2022-10-10T09:45:42.288Z,1.00
2022-10-10T09:48:10.620Z,1.00
2022-10-10T09:50:43.073Z,1.00
2022-10-10T09:53:16.459Z,1.00
2022-10-10T09:55:45.993Z,1.00
2022-10-10T09:58:32.754Z,1.00
2022-10-10T10:01:14.792Z,1.00
2022-10-10T10:03:42.394Z,1.00
2022-10-10T10:06:13.647Z,1.00
2022-10-10T10:08:41.273Z,1.00
2022-10-10T10:11:25.703Z,1.00
2022-10-10T10:13:56.932Z,1.00
2022-10-10T10:16:34.088Z,1.00
2022-10-10T10:19:01.630Z,1.00
2022-10-10T10:21:32.369Z,1.00
2022-10-10T10:24:18.604Z,1.00
2022-10-10T10:26:47.371Z,1.00
2022-10-10T10:29:34.201Z,1.00
2022-10-10T10:32:10.010Z,1.00
2022-10-10T10:35:14.349Z,1.00
2022-10-10T10:37:44.078Z,1.00
2022-10-10T10:40:16.515Z,1.00
2022-10-10T10:43:22.240Z,1.00
2022-10-10T10:46:03.333Z,1.00
2022-10-10T10:48:39.445Z,1.00
2022-10-10T10:51:33.784Z,1.00
2022-10-10T10:54:39.496Z,1.00
2022-10-10T10:58:04.769Z,1.00
2022-10-10T11:01:23.526Z,1.00
2022-10-10T11:05:16.695Z,1.00
2022-10-10T11:07:13.727Z,1.00
2022-10-10T11:09:50.371Z,1.00
2022-10-10T11:12:54.990Z,1.00
2022-10-10T11:16:01.778Z,1.00
2022-10-10T11:18:32.554Z,1.00
2022-10-10T11:21:08.734Z,1.00
2022-10-10T11:24:23.551Z,1.00
2022-10-10T11:26:55.054Z,1.00
2022-10-10T11:29:25.640Z,1.00
2022-10-10T11:31:59.616Z,1.00
2022-10-10T11:34:43.079Z,1.00
2022-10-10T11:37:18.899Z,1.00
2022-10-10T11:39:55.107Z,1.00
2022-10-10T11:42:26.989Z,1.00
2022-10-10T11:45:02.240Z,1.00
2022-10-10T11:47:37.764Z,1.00
2022-10-10T11:50:26.898Z,1.00
2022-10-10T11:53:19.327Z,1.00
2022-10-10T11:56:05.044Z,1.00
2022-10-10T11:58:44.432Z,1.00
2022-10-10T12:01:36.840Z,1.00
2022-10-10T12:04:03.956Z,1.00
2022-10-10T12:06:34.336Z,1.00
2022-10-10T12:09:14.922Z,1.00
2022-10-10T12:11:59.354Z,1.00
2022-10-10T12:14:29.078Z,1.00
2022-10-10T12:16:56.227Z,1.00
2022-10-10T12:19:26.095Z,1.00
2022-10-10T12:22:02.086Z,1.00
2022-10-10T12:24:31.779Z,1.00
2022-10-10T12:26:58.578Z,1.00
2022-10-10T12:29:47.747Z,1.00
2022-10-10T12:32:19.693Z,1.00
2022-10-10T12:34:49.540Z,1.00
2022-10-10T12:37:35.672Z,1.00
2022-10-10T12:40:08.428Z,1.00
2022-10-10T12:42:47.780Z,1.00
2022-10-10T12:45:34.940Z,1.00
2022-10-10T12:48:18.383Z,1.00
2022-10-10T12:51:01.084Z,1.00
2022-10-10T12:53:31.637Z,1.00
2022-10-10T12:56:00.941Z,1.00
2022-10-10T12:58:38.295Z,1.00
2022-10-10T13:01:26.996Z,1.00
2022-10-10T13:03:55.319Z,1.00
2022-10-10T13:06:34.900Z,1.00
2022-10-10T13:09:07.457Z,1.00
2022-10-10T13:11:51.328Z,1.00
2022-10-10T13:14:18.345Z,1.00
2022-10-10T13:16:45.663Z,1.00
2022-10-10T13:19:23.814Z,1.00
2022-10-10T13:21:53.062Z,1.00
2022-10-10T13:24:28.538Z,1.00
2022-10-10T13:26:55.857Z,1.00
2022-10-10T13:29:34.974Z,1.00
2022-10-10T13:32:06.425Z,1.00
2022-10-10T13:34:37.638Z,1.00
2022-10-10T13:37:06.278Z,1.00
2022-10-10T13:39:36.620Z,1.00
2022-10-10T13:42:05.790Z,1.00
2022-10-10T13:44:53.911Z,1.00
2022-10-10T13:47:58.059Z,1.00
2022-10-10T13:50:30.067Z,1.00
2022-10-10T13:53:21.702Z,1.00
2022-10-10T13:55:48.690Z,1.00
2022-10-10T13:58:16.303Z,1.00
2022-10-10T14:00:43.628Z,1.00
2022-10-10T14:03:19.119Z,1.00
2022-10-10T14:05:46.643Z,1.00
2022-10-10T14:08:19.716Z,1.00
2022-10-10T14:11:01.545Z,1.00
2022-10-10T14:13:31.541Z,1.00
2022-10-10T14:16:24.066Z,1.00
2022-10-10T14:18:50.776Z,1.00
2022-10-10T14:21:17.694Z,1.00
2022-10-10T14:23:44.528Z,1.00
2022-10-10T14:26:18.123Z,1.00
2022-10-10T14:28:45.616Z,1.00
2022-10-10T14:31:13.108Z,1.00
2022-10-10T14:33:39.821Z,1.00
2022-10-10T14:36:07.754Z,1.00
2022-10-10T14:38:34.512Z,1.00
2022-10-10T14:41:02.176Z,1.00
2022-10-10T14:43:29.217Z,1.00
2022-10-10T14:45:56.014Z,1.00
2022-10-10T14:48:22.729Z,1.00
2022-10-10T14:50:51.167Z,1.00
2022-10-10T14:53:18.524Z,1.00
2022-10-10T14:55:46.283Z,1.00
2022-10-10T14:58:19.179Z,1.00
2022-10-10T15:00:46.724Z,1.00
2022-10-10T15:03:13.852Z,1.00
2022-10-10T15:05:41.283Z,1.00
2022-10-10T15:08:08.141Z,1.00
2022-10-10T15:10:35.467Z,1.00
2022-10-10T15:13:03.339Z,1.00
2022-10-10T15:15:30.368Z,1.00
2022-10-10T15:17:58.707Z,1.00
2022-10-10T15:20:30.932Z,1.00
2022-10-10T15:23:03.607Z,1.00
2022-10-10T15:25:33.630Z,1.00
2022-10-10T15:28:02.269Z,1.00
2022-10-10T15:30:29.003Z,1.00
2022-10-10T15:32:55.697Z,1.00
2022-10-10T15:35:24.595Z,1.00
2022-10-10T15:37:51.519Z,1.00
2022-10-10T15:40:21.077Z,1.00
2022-10-10T15:42:48.712Z,1.00
2022-10-10T15:45:30.882Z,1.00
2022-10-10T15:48:02.759Z,1.00
2022-10-10T15:50:29.451Z,1.00
2022-10-10T15:52:56.497Z,1.00
2022-10-10T15:55:23.163Z,1.00
2022-10-10T15:57:49.820Z,1.00
2022-10-10T16:00:16.714Z,1.00
2022-10-10T16:02:43.451Z,1.00
2022-10-10T16:05:10.232Z,1.00
2022-10-10T16:07:46.659Z,1.00
2022-10-10T16:10:14.792Z,1.00
2022-10-10T16:12:41.482Z,1.00
2022-10-10T16:15:08.707Z,1.00
2022-10-10T16:17:35.539Z,1.00
2022-10-10T16:20:02.692Z,1.00
2022-10-10T16:22:29.418Z,1.00
2022-10-10T16:27:43.572Z,1.00
2022-10-10T16:30:11.106Z,1.00
2022-10-10T16:32:42.007Z,1.00
2022-10-10T16:35:10.804Z,1.00
2022-10-10T16:37:38.255Z,1.00
2022-10-10T16:40:06.225Z,1.00
2022-10-10T16:42:33.525Z,1.00
2022-10-10T16:45:00.225Z,1.00
2022-10-10T16:47:26.894Z,1.00
2022-10-10T16:49:53.596Z,1.00
2022-10-10T16:52:20.309Z,1.00
2022-10-10T16:54:51.820Z,1.00
2022-10-10T16:57:19.213Z,1.00
2022-10-10T16:59:45.970Z,1.00
2022-10-10T17:02:12.817Z,1.00
2022-10-10T17:04:39.590Z,1.00
2022-10-10T17:07:06.348Z,8.60
2022-10-10T17:09:33.027Z,28.80
2022-10-10T17:11:59.746Z,51.10
2022-10-10T17:14:26.491Z,65.30
2022-10-10T17:17:11.479Z,75.90
2022-10-10T17:19:41.358Z,89.50
2022-10-10T17:22:08.094Z,98.00
2022-10-10T17:24:35.983Z,99.90
2022-10-10T17:27:02.962Z,99.90
2022-10-10T17:29:29.708Z,99.90
2022-10-10T17:31:56.411Z,99.90
2022-10-10T17:34:23.124Z,99.90
2022-10-10T17:36:49.813Z,99.90
2022-10-10T17:39:16.581Z,99.90
2022-10-10T17:41:45.594Z,99.90
2022-10-10T17:44:13.387Z,99.90
2022-10-10T17:46:40.752Z,99.90
2022-10-10T17:49:11.065Z,99.90
2022-10-10T17:51:39.739Z,99.90
2022-10-10T17:54:07.250Z,99.90
2022-10-10T17:56:34.869Z,99.90
2022-10-10T17:59:05.339Z,99.90
2022-10-10T18:01:33.005Z,99.90
2022-10-10T18:04:00.062Z,99.90
2022-10-10T18:06:28.947Z,99.90
2022-10-10T18:08:56.510Z,99.90
2022-10-10T18:11:25.858Z,99.90
2022-10-10T18:13:53.072Z,99.90
2022-10-10T18:16:23.124Z,1.00
2022-10-10T18:18:51.891Z,1.00
2022-10-10T18:21:23.318Z,99.90
2022-10-10T18:23:50.535Z,99.90
2022-10-10T18:26:22.922Z,99.90
2022-10-10T18:28:52.247Z,99.90
2022-10-10T18:31:22.397Z,99.90
2022-10-10T18:33:50.049Z,99.90
2022-10-10T18:36:19.714Z,99.90
2022-10-10T18:38:47.300Z,99.90
2022-10-10T18:41:19.592Z,99.90
2022-10-10T18:43:47.079Z,99.90
2022-10-10T18:46:15.875Z,99.90
2022-10-10T18:48:43.937Z,99.90
2022-10-10T18:51:21.580Z,99.90
2022-10-10T18:53:48.857Z,99.90
2022-10-10T18:56:21.038Z,99.90
2022-10-10T18:58:48.139Z,99.90
2022-10-10T19:01:15.704Z,99.90
2022-10-10T19:03:43.114Z,99.90
2022-10-10T19:06:12.829Z,99.90
2022-10-10T19:08:40.351Z,99.90
2022-10-10T19:11:09.416Z,99.90
2022-10-10T19:13:36.166Z,99.90
2022-10-10T19:16:04.529Z,99.90
2022-10-10T19:18:31.240Z,99.90
2022-10-10T19:21:03.007Z,99.90
2022-10-10T19:23:30.087Z,99.90
2022-10-10T19:26:00.892Z,99.90
2022-10-10T19:28:27.774Z,99.90
2022-10-10T19:30:54.456Z,99.90
2022-10-10T19:33:21.166Z,99.90
2022-10-10T19:35:51.260Z,99.90
2022-10-10T19:38:19.607Z,99.90
2022-10-10T19:40:48.493Z,99.90
2022-10-10T19:43:16.742Z,99.90
2022-10-10T19:45:47.031Z,99.90
2022-10-10T19:48:16.313Z,99.90
2022-10-10T19:50:44.521Z,99.90
2022-10-10T19:53:14.572Z,99.90
2022-10-10T19:55:41.781Z,99.90
2022-10-10T19:58:08.566Z,99.90
2022-10-10T20:00:37.863Z,99.90
2022-10-10T20:03:05.836Z,99.90
2022-10-10T20:05:32.562Z,99.90
2022-10-10T20:07:59.306Z,99.90
2022-10-10T20:10:27.436Z,99.90
2022-10-10T20:12:55.028Z,99.90
2022-10-10T20:15:21.813Z,99.90
2022-10-10T20:17:48.626Z,99.90
2022-10-10T20:20:15.491Z,99.90
2022-10-10T20:22:44.499Z,99.90
2022-10-10T20:25:11.704Z,99.90
2022-10-10T20:27:38.460Z,99.90
2022-10-10T20:30:05.827Z,99.90
2022-10-10T20:32:32.559Z,99.90
2022-10-10T20:34:59.368Z,99.90
2022-10-10T20:37:26.190Z,99.90
2022-10-10T20:39:52.927Z,99.90
2022-10-10T20:42:19.694Z,99.90
2022-10-10T20:44:46.587Z,99.90
2022-10-10T20:47:13.374Z,99.90
2022-10-10T20:49:40.110Z,99.90
2022-10-10T20:52:06.973Z,99.90
2022-10-10T20:54:34.048Z,1.00
2022-10-10T20:57:00.857Z,1.00
2022-10-10T20:59:27.654Z,1.00
2022-10-10T21:01:54.565Z,1.00
2022-10-10T21:04:21.323Z,1.00
2022-10-10T21:06:48.111Z,1.00
2022-10-10T21:09:15.451Z,1.00
2022-10-10T21:11:42.402Z,1.00
2022-10-10T21:14:10.628Z,1.00
2022-10-10T21:16:40.432Z,1.00
2022-10-10T21:19:09.317Z,1.00
2022-10-10T21:21:36.894Z,1.00
2022-10-10T21:24:10.919Z,1.00
2022-10-10T21:26:38.222Z,1.00
2022-10-10T21:29:05.051Z,1.00
2022-10-10T21:31:37.713Z,1.00
2022-10-10T21:34:06.892Z,1.00
2022-10-10T21:36:34.693Z,1.00
2022-10-10T21:39:01.661Z,1.00
2022-10-10T21:41:29.078Z,1.00
2022-10-10T21:43:59.741Z,1.00
2022-10-10T21:46:35.839Z,1.00
2022-10-10T21:49:08.016Z,1.00
2022-10-10T21:51:37.933Z,1.00
2022-10-10T21:54:05.366Z,1.00
2022-10-10T21:56:32.210Z,1.00
2022-10-10T21:59:01.402Z,1.00
2022-10-10T22:01:33.067Z,1.00
2022-10-10T22:04:01.273Z,1.00
2022-10-10T22:06:28.316Z,1.00
2022-10-10T22:08:57.670Z,1.00
2022-10-10T22:11:26.427Z,1.00
2022-10-10T22:13:53.208Z,1.00
2022-10-10T22:16:20.800Z,1.00
2022-10-10T22:18:47.769Z,1.00
2022-10-10T22:21:16.560Z,1.00
2022-10-10T22:23:44.918Z,1.00
2022-10-10T22:26:13.328Z,1.00
2022-10-10T22:28:40.665Z,1.00
2022-10-10T22:31:09.737Z,1.00
2022-10-10T22:33:36.650Z,1.00
2022-10-10T22:36:05.067Z,1.00
2022-10-10T22:38:32.518Z,1.00
2022-10-10T22:40:59.406Z,1.00
2022-10-10T22:43:27.213Z,1.00
2022-10-10T22:45:54.257Z,1.00
2022-10-10T22:48:21.181Z,1.00
2022-10-10T22:50:47.997Z,1.00
2022-10-10T22:53:14.750Z,1.00
2022-10-10T22:55:41.767Z,1.00
2022-10-10T22:58:09.052Z,1.00
2022-10-10T23:00:36.013Z,1.00
2022-10-10T23:03:02.854Z,1.00
2022-10-10T23:05:29.632Z,1.00
2022-10-10T23:07:56.509Z,1.00
2022-10-10T23:10:23.443Z,1.00
2022-10-10T23:12:50.275Z,1.00
2022-10-10T23:15:17.190Z,1.00
2022-10-10T23:17:43.929Z,10.00
2022-10-10T23:20:10.863Z,13.40
2022-10-10T23:22:37.726Z,12.80
2022-10-10T23:25:04.826Z,18.90
2022-10-10T23:27:31.549Z,23.60
2022-10-10T23:29:58.284Z,25.10
2022-10-10T23:32:29.141Z,29.10
2022-10-10T23:34:58.591Z,36.10
2022-10-10T23:37:25.562Z,30.10
2022-10-10T23:39:52.295Z,28.10
2022-10-10T23:42:19.249Z,21.00
2022-10-10T23:44:46.120Z,14.10
2022-10-10T23:47:12.844Z,24.40
2022-10-10T23:49:39.668Z,27.70
2022-10-10T23:52:06.547Z,33.00
2022-10-10T23:54:33.348Z,40.60
2022-10-10T23:57:00.141Z,47.40
2022-10-10T23:59:26.912Z,48.90
